Elm Grove, Wisconsin
Current Conditions -  °F | °C
As of 7:45 AM on Wednesday 26 Nov 2014 (Local Time) from KUES Reporting Station
Light Snow Light Snow  
Wind Chill: -13°   Ceiling: 300
Heat Index: -13°   Visibility: 1mi
Dew Point: -13°   Wind: 3mph
Humidity: 100%   Direction: 170°S
Pressure: 30.15"   Gusts: NA
Location:  43.05°N, 88.08°W
Report Text: KUES 261345Z 17003KT 1SM -SNBR BKN003 M13/M13 A3015
Loading
Personal Weather Stations






























Interactive Weather Map New forecast layout! Learn more

10-Day Weather Forecast

Advertisements
Track Severe Weather on mobile